Nord Copenhagen — 3FNV7 — position and weather

sailwx.info

Track history (hours):
 
Tides and Currents Weather Stations Pressure Air Temp Water Temp Dewpoint Dewpoint Depression Visibility Wind Speed Wind Dir Waves Ship Positions

Nord Copenhagen

Last reported at 2016-Jan-25 03:04 UTC. Time now 2016-Feb-08 12:33 UTC.
Position N 35°39' E 014°30'.
Warning: this ship's position is 14 days out of date.

Length 177 m; draft 10 m.

Type: Cargo ship. MMSI: 373334000.

Date/timePositionNaut miles runAvg speedWind from/ knotsBaromVisibWave heightAir tempDewpointWater temp
2016-Jan-25 03:04N 35°39' E 014°30'713.7
2016-Jan-25 02:33N 35°43' E 014°23'1413.5
2016-Jan-25 01:33N 35°50' E 014°09'1313.5
2016-Jan-25 00:34N 35°57' E 013°55'60213.0
2016-Jan-23 02:23N 37°00' E 001°30'1113.3
2016-Jan-23 01:33N 36°58' E 001°17'1313.3
2016-Jan-23 00:33N 36°54' E 001°01'1413.6
2016-Jan-22 23:33N 36°50' E 000°45'1413.6
2016-Jan-22 22:33N 36°43' E 000°30'1413.6
2016-Jan-22 21:33N 36°38' E 000°14'4113.8
2016-Jan-22 18:33N 36°32' W 000°37'8714.4
2016-Jan-22 12:33N 36°16' W 002°23'14214.2
2016-Jan-22 02:33N 36°01' W 005°17'7 7.0
2016-Jan-22 01:31N 36°07' W 005°22'0 0.0
2016-Jan-22 00:31N 36°07' W 005°22'0 0.0
2016-Jan-21 23:19N 36°07' W 005°22'0 0.0
2016-Jan-21 22:31N 36°07' W 005°22'0 0.0
2016-Jan-21 21:31N 36°07' W 005°22'0 0.1
2016-Jan-21 20:28N 36°07' W 005°22'0 0.1
2016-Jan-21 18:19N 36°07' W 005°22'0 0.0
2016-Jan-21 17:22N 36°07' W 005°21'1 1.6
2016-Jan-21 16:33N 36°06' W 005°21'9 1.4
2016-Jan-21 10:11N 36°08' W 005°11'5 8.1
2016-Jan-21 09:33N 36°05' W 005°16'1111.0
2016-Jan-21 08:33N 35°58' W 005°26'  
Track history (hours):
 
Tides and Currents Weather Stations Pressure Air Temp Water Temp Dewpoint Dewpoint Depression Visibility Wind Speed Wind Dir Waves Ship Positions

Nord Copenhagen

Last reported at 2016-Jan-25 03:04 UTC. Time now 2016-Feb-08 12:33 UTC.
Position N 35°39' E 014°30'.
Warning: this ship's position is 14 days out of date.

Length 177 m; draft 10 m.

Type: Cargo ship. MMSI: 373334000.

Date/timePositionNaut miles runAvg speedWind from/ knotsBaromVisibWave heightAir tempDewpointWater temp
2016-Jan-25 03:04N 35°39' E 014°30'713.7
2016-Jan-25 02:33N 35°43' E 014°23'1413.5
2016-Jan-25 01:33N 35°50' E 014°09'1313.5
2016-Jan-25 00:34N 35°57' E 013°55'60213.0
2016-Jan-23 02:23N 37°00' E 001°30'1113.3
2016-Jan-23 01:33N 36°58' E 001°17'1313.3
2016-Jan-23 00:33N 36°54' E 001°01'1413.6
2016-Jan-22 23:33N 36°50' E 000°45'1413.6
2016-Jan-22 22:33N 36°43' E 000°30'1413.6
2016-Jan-22 21:33N 36°38' E 000°14'4113.8
2016-Jan-22 18:33N 36°32' W 000°37'8714.4
2016-Jan-22 12:33N 36°16' W 002°23'14214.2
2016-Jan-22 02:33N 36°01' W 005°17'7 7.0
2016-Jan-22 01:31N 36°07' W 005°22'0 0.0
2016-Jan-22 00:31N 36°07' W 005°22'0 0.0
2016-Jan-21 23:19N 36°07' W 005°22'0 0.0
2016-Jan-21 22:31N 36°07' W 005°22'0 0.0
2016-Jan-21 21:31N 36°07' W 005°22'0 0.1
2016-Jan-21 20:28N 36°07' W 005°22'0 0.1
2016-Jan-21 18:19N 36°07' W 005°22'0 0.0
2016-Jan-21 17:22N 36°07' W 005°21'1 1.6
2016-Jan-21 16:33N 36°06' W 005°21'9 1.4
2016-Jan-21 10:11N 36°08' W 005°11'5 8.1
2016-Jan-21 09:33N 36°05' W 005°16'1111.0
2016-Jan-21 08:33N 35°58' W 005°26'  

Dump ship's entire track history